LTAT/MLX METAR and TAF weather

Enter ICAO airport designator
Station Type Date Time Source
LTAT METAR 2024/06/16 08:50 UTC NOAA

LTAT 160850Z 09007KT 030V160 9999 FEW040 33/10 Q1010 NOSIG


Station Type Date Time Source
LTAT Decoded METAR 2024/06/16 08:50 UTC NOAA

Malatya / Erhac, Turkey (LTAT) 38-26N 038-05E 849M
Jun 16, 2024 - 04:50 AM EDT / 2024.06.16 0850 UTC
Wind: from the E (090 degrees) at 8 MPH (7 KT) (direction variable):0
Visibility: greater than 7 mile(s):0
Sky conditions: mostly clear
Temperature: 91 F (33 C)
Dew Point: 50 F (10 C)
Relative Humidity: 24%
Pressure (altimeter): 29.83 in. Hg (1010 hPa)
ob: LTAT 160850Z 09007KT 030V160 9999 FEW040 33/10 Q1010 NOSIG
cycle: 9

Station Type Date Time Source
LTAT TAF 2024/06/16 06:03 UTC NOAA